Terminal Aerodrome Forecast
Issued by NWS Portland, OR

Home | Current Version | Previous Version | Text Only | Print | Product List | Glossary On
Versions: 1 2 3 4 5 6 7 8 9 10 11 12 13 14 15
000
FTUS46 KPQR 242338
TAFTTD
TAF
KTTD 242338Z 2500/2524 27005KT P6SM BKN080
     FM250300 29004KT P6SM SCT080
     FM251000 26004KT P6SM BKN025 BKN050
     FM251800 27004KT P6SM SCT030 BKN060
     FM252100 28005KT P6SM SCT060=

USA.gov is the U.S. government's official web portal to all federal, state and local government web resources and services.